sensor_id;sensor_type;location;lat;lon;timestamp;temperature;humidity
16968;DHT22;64862;54.398;10.126;2023-08-30T00:03:37;15.10;92.10
16968;DHT22;64862;54.398;10.126;2023-08-30T00:13:39;15.20;92.10
16968;DHT22;64862;54.398;10.126;2023-08-30T00:23:42;15.20;92.10
16968;DHT22;64862;54.398;10.126;2023-08-30T00:33:44;15.20;92.10
16968;DHT22;64862;54.398;10.126;2023-08-30T00:43:48;15.20;92.00
16968;DHT22;64862;54.398;10.126;2023-08-30T00:53:51;15.10;91.80
16968;DHT22;64862;54.398;10.126;2023-08-30T01:03:54;14.80;91.70
16968;DHT22;64862;54.398;10.126;2023-08-30T01:14:00;14.60;91.80
16968;DHT22;64862;54.398;10.126;2023-08-30T01:24:06;14.50;91.90
16968;DHT22;64862;54.398;10.126;2023-08-30T01:34:11;14.40;92.00
16968;DHT22;64862;54.398;10.126;2023-08-30T01:44:14;14.40;91.90
16968;DHT22;64862;54.398;10.126;2023-08-30T01:54:19;14.30;92.00
16968;DHT22;64862;54.398;10.126;2023-08-30T02:04:22;14.20;92.20
16968;DHT22;64862;54.398;10.126;2023-08-30T02:14:27;14.30;91.90
16968;DHT22;64862;54.398;10.126;2023-08-30T02:24:29;14.30;91.90
16968;DHT22;64862;54.398;10.126;2023-08-30T02:34:33;14.30;91.80
16968;DHT22;64862;54.398;10.126;2023-08-30T02:44:36;14.20;91.60
16968;DHT22;64862;54.398;10.126;2023-08-30T02:54:39;14.30;91.80
16968;DHT22;64862;54.398;10.126;2023-08-30T03:04:41;14.50;91.70
16968;DHT22;64862;54.398;10.126;2023-08-30T03:14:45;14.50;91.70
16968;DHT22;64862;54.398;10.126;2023-08-30T03:24:47;14.50;92.40
16968;DHT22;64862;54.398;10.126;2023-08-30T03:34:52;14.70;92.70
16968;DHT22;64862;54.398;10.126;2023-08-30T03:44:54;14.90;93.00
16968;DHT22;64862;54.398;10.126;2023-08-30T03:54:57;15.00;93.10
16968;DHT22;64862;54.398;10.126;2023-08-30T04:04:59;15.00;93.10
16968;DHT22;64862;54.398;10.126;2023-08-30T04:15:03;15.00;93.20
16968;DHT22;64862;54.398;10.126;2023-08-30T04:25:05;15.00;93.10
16968;DHT22;64862;54.398;10.126;2023-08-30T04:35:11;14.90;93.10
16968;DHT22;64862;54.398;10.126;2023-08-30T04:45:13;14.90;93.30
16968;DHT22;64862;54.398;10.126;2023-08-30T04:55:18;14.90;93.50
16968;DHT22;64862;54.398;10.126;2023-08-30T05:05:20;15.00;93.60
16968;DHT22;64862;54.398;10.126;2023-08-30T05:15:23;15.10;93.60
16968;DHT22;64862;54.398;10.126;2023-08-30T05:25:25;15.30;93.50
16968;DHT22;64862;54.398;10.126;2023-08-30T05:35:29;16.60;93.40
16968;DHT22;64862;54.398;10.126;2023-08-30T05:46:06;17.50;92.20
16968;DHT22;64862;54.398;10.126;2023-08-30T05:56:14;17.00;90.80
16968;DHT22;64862;54.398;10.126;2023-08-30T06:06:17;16.40;91.60
16968;DHT22;64862;54.398;10.126;2023-08-30T06:16:21;16.10;92.20
16968;DHT22;64862;54.398;10.126;2023-08-30T06:26:22;16.10;92.50
16968;DHT22;64862;54.398;10.126;2023-08-30T06:36:26;16.00;92.70
16968;DHT22;64862;54.398;10.126;2023-08-30T06:46:28;16.00;92.90
16968;DHT22;64862;54.398;10.126;2023-08-30T06:56:32;16.00;92.70
16968;DHT22;64862;54.398;10.126;2023-08-30T07:06:34;16.00;92.90
16968;DHT22;64862;54.398;10.126;2023-08-30T07:16:37;16.20;92.80
16968;DHT22;64862;54.398;10.126;2023-08-30T07:26:39;16.40;92.60
16968;DHT22;64862;54.398;10.126;2023-08-30T07:36:42;16.50;92.50
16968;DHT22;64862;54.398;10.126;2023-08-30T07:46:44;16.70;92.00
16968;DHT22;64862;54.398;10.126;2023-08-30T07:56:47;16.90;92.00
16968;DHT22;64862;54.398;10.126;2023-08-30T08:06:49;16.90;91.10
16968;DHT22;64862;54.398;10.126;2023-08-30T08:16:52;17.00;90.90
16968;DHT22;64862;54.398;10.126;2023-08-30T08:26:54;17.20;90.90
16968;DHT22;64862;54.398;10.126;2023-08-30T08:36:57;17.30;90.40
16968;DHT22;64862;54.398;10.126;2023-08-30T08:46:59;17.30;90.10
16968;DHT22;64862;54.398;10.126;2023-08-30T08:57:05;17.40;88.80
16968;DHT22;64862;54.398;10.126;2023-08-30T09:07:07;17.60;88.60
16968;DHT22;64862;54.398;10.126;2023-08-30T09:17:12;17.60;88.00
16968;DHT22;64862;54.398;10.126;2023-08-30T09:27:14;17.70;88.60
16968;DHT22;64862;54.398;10.126;2023-08-30T09:37:21;17.80;88.20
16968;DHT22;64862;54.398;10.126;2023-08-30T09:47:24;18.00;87.60
16968;DHT22;64862;54.398;10.126;2023-08-30T09:57:29;18.10;87.00
16968;DHT22;64862;54.398;10.126;2023-08-30T10:07:31;18.30;86.90
16968;DHT22;64862;54.398;10.126;2023-08-30T10:17:37;18.10;86.60
16968;DHT22;64862;54.398;10.126;2023-08-30T10:27:43;18.10;87.00
16968;DHT22;64862;54.398;10.126;2023-08-30T10:37:58;18.40;84.90
16968;DHT22;64862;54.398;10.126;2023-08-30T10:48:01;18.60;83.40
16968;DHT22;64862;54.398;10.126;2023-08-30T10:58:05;18.70;82.80
16968;DHT22;64862;54.398;10.126;2023-08-30T11:08:10;18.80;81.20
16968;DHT22;64862;54.398;10.126;2023-08-30T11:18:18;18.90;79.50
16968;DHT22;64862;54.398;10.126;2023-08-30T11:28:24;19.00;79.20
16968;DHT22;64862;54.398;10.126;2023-08-30T11:38:27;19.00;78.20
16968;DHT22;64862;54.398;10.126;2023-08-30T11:48:29;19.10;75.90
16968;DHT22;64862;54.398;10.126;2023-08-30T11:58:34;19.20;75.60
16968;DHT22;64862;54.398;10.126;2023-08-30T12:08:36;19.20;77.60
16968;DHT22;64862;54.398;10.126;2023-08-30T12:18:39;19.20;76.00
16968;DHT22;64862;54.398;10.126;2023-08-30T12:28:42;19.30;75.10
16968;DHT22;64862;54.398;10.126;2023-08-30T12:38:46;19.30;75.20
16968;DHT22;64862;54.398;10.126;2023-08-30T12:48:48;19.20;74.80
16968;DHT22;64862;54.398;10.126;2023-08-30T12:58:52;19.00;74.10
16968;DHT22;64862;54.398;10.126;2023-08-30T13:08:55;19.00;75.30
16968;DHT22;64862;54.398;10.126;2023-08-30T13:18:58;19.30;75.10
16968;DHT22;64862;54.398;10.126;2023-08-30T13:29:01;19.30;75.00
16968;DHT22;64862;54.398;10.126;2023-08-30T13:39:05;19.30;74.40
16968;DHT22;64862;54.398;10.126;2023-08-30T13:49:06;19.40;74.10
16968;DHT22;64862;54.398;10.126;2023-08-30T13:59:10;19.40;74.90
16968;DHT22;64862;54.398;10.126;2023-08-30T14:09:12;19.40;72.80
16968;DHT22;64862;54.398;10.126;2023-08-30T14:19:17;19.40;71.40
16968;DHT22;64862;54.398;10.126;2023-08-30T14:29:20;19.80;72.90
16968;DHT22;64862;54.398;10.126;2023-08-30T14:39:24;19.70;73.10
16968;DHT22;64862;54.398;10.126;2023-08-30T14:49:26;19.70;72.80
16968;DHT22;64862;54.398;10.126;2023-08-30T14:59:30;19.70;71.30
16968;DHT22;64862;54.398;10.126;2023-08-30T15:09:33;19.50;72.70
16968;DHT22;64862;54.398;10.126;2023-08-30T15:19:37;19.50;73.90
16968;DHT22;64862;54.398;10.126;2023-08-30T15:29:40;19.50;71.90
16968;DHT22;64862;54.398;10.126;2023-08-30T15:39:45;19.40;72.50
16968;DHT22;64862;54.398;10.126;2023-08-30T15:49:47;19.40;73.90
16968;DHT22;64862;54.398;10.126;2023-08-30T15:59:51;19.40;74.20
16968;DHT22;64862;54.398;10.126;2023-08-30T16:09:53;19.50;73.30
16968;DHT22;64862;54.398;10.126;2023-08-30T16:19:58;19.50;73.00
16968;DHT22;64862;54.398;10.126;2023-08-30T16:29:59;19.30;72.30
16968;DHT22;64862;54.398;10.126;2023-08-30T16:40:06;19.10;74.80
16968;DHT22;64862;54.398;10.126;2023-08-30T16:50:08;18.90;75.90
16968;DHT22;64862;54.398;10.126;2023-08-30T17:00:16;18.80;76.80
16968;DHT22;64862;54.398;10.126;2023-08-30T17:10:21;18.80;81.20
16968;DHT22;64862;54.398;10.126;2023-08-30T17:20:25;18.90;81.20
16968;DHT22;64862;54.398;10.126;2023-08-30T17:30:28;18.80;80.50
16968;DHT22;64862;54.398;10.126;2023-08-30T17:40:32;18.50;82.00
16968;DHT22;64862;54.398;10.126;2023-08-30T17:50:35;18.30;83.30
16968;DHT22;64862;54.398;10.126;2023-08-30T18:00:38;18.10;85.40
16968;DHT22;64862;54.398;10.126;2023-08-30T18:10:40;17.90;86.90
16968;DHT22;64862;54.398;10.126;2023-08-30T18:20:43;17.80;88.40
16968;DHT22;64862;54.398;10.126;2023-08-30T18:30:46;17.60;90.10
16968;DHT22;64862;54.398;10.126;2023-08-30T18:40:49;17.50;90.50
16968;DHT22;64862;54.398;10.126;2023-08-30T18:50:52;17.40;91.20
16968;DHT22;64862;54.398;10.126;2023-08-30T19:00:58;17.30;91.50
16968;DHT22;64862;54.398;10.126;2023-08-30T19:11:00;17.20;91.90
16968;DHT22;64862;54.398;10.126;2023-08-30T19:21:05;17.20;92.30
16968;DHT22;64862;54.398;10.126;2023-08-30T19:31:09;17.10;92.40
16968;DHT22;64862;54.398;10.126;2023-08-30T19:41:12;17.10;92.70
16968;DHT22;64862;54.398;10.126;2023-08-30T19:51:15;17.00;92.80
16968;DHT22;64862;54.398;10.126;2023-08-30T20:01:19;16.90;93.10
16968;DHT22;64862;54.398;10.126;2023-08-30T20:11:21;16.80;93.40
16968;DHT22;64862;54.398;10.126;2023-08-30T20:21:25;16.80;93.50
16968;DHT22;64862;54.398;10.126;2023-08-30T20:31:27;16.70;93.40
16968;DHT22;64862;54.398;10.126;2023-08-30T20:41:30;16.70;93.50
16968;DHT22;64862;54.398;10.126;2023-08-30T20:51:32;16.60;93.70
16968;DHT22;64862;54.398;10.126;2023-08-30T21:01:35;16.70;93.70
16968;DHT22;64862;54.398;10.126;2023-08-30T21:11:37;16.70;93.50
16968;DHT22;64862;54.398;10.126;2023-08-30T21:21:40;16.60;93.50
16968;DHT22;64862;54.398;10.126;2023-08-30T21:31:43;16.60;93.40
16968;DHT22;64862;54.398;10.126;2023-08-30T21:41:46;16.60;93.40
16968;DHT22;64862;54.398;10.126;2023-08-30T21:51:48;16.50;93.30
16968;DHT22;64862;54.398;10.126;2023-08-30T22:01:51;16.40;93.40
16968;DHT22;64862;54.398;10.126;2023-08-30T22:11:53;16.40;93.70
16968;DHT22;64862;54.398;10.126;2023-08-30T22:21:56;16.40;94.10
16968;DHT22;64862;54.398;10.126;2023-08-30T22:31:58;16.20;94.40
16968;DHT22;64862;54.398;10.126;2023-08-30T22:42:01;16.20;94.40
16968;DHT22;64862;54.398;10.126;2023-08-30T22:52:04;16.20;94.70
16968;DHT22;64862;54.398;10.126;2023-08-30T23:02:07;16.20;94.60
16968;DHT22;64862;54.398;10.126;2023-08-30T23:12:09;16.10;94.50
16968;DHT22;64862;54.398;10.126;2023-08-30T23:22:12;16.10;94.60
16968;DHT22;64862;54.398;10.126;2023-08-30T23:32:15;16.00;94.50
16968;DHT22;64862;54.398;10.126;2023-08-30T23:42:18;16.10;94.60
16968;DHT22;64862;54.398;10.126;2023-08-30T23:52:20;15.90;94.50
